Time;durP1;ratioP1;P1;durP2;ratioP2;P2;SDS_P1;SDS_P2;PMS_P1;PMS_P2;Temp;Humidity;BMP_temperature;BMP_pressure;BME280_temperature;BME280_humidity;BME280_pressure;Samples;Min_cycle;Max_cycle;Signal;HPM_P1;HPM_P2
2022/08/08 00:02:58;;;;;;;;;;;;;;;17.41;44.15;99356.72;2622975;54;19957;-67
2022/08/08 00:05:30;;;;;;;;;;;;;;;17.31;44.74;99352.75;2622415;54;19938;-67
2022/08/08 00:08:22;;;;;;;;;;;;;;;17.33;44.39;99352.50;2622898;54;19986;-66
2022/08/08 00:10:57;;;;;;;;;;;;;;;17.25;44.88;99350.94;2619788;54;19945;-67
2022/08/08 00:13:30;;;;;;;;;;;;;;;17.15;44.97;99357.84;2618329;54;19950;-67
2022/08/08 00:16:24;;;;;;;;;;;;;;;17.07;45.72;99359.78;2618477;54;19973;-67
2022/08/08 00:19:01;;;;;;;;;;;;;;;17.00;45.50;99364.34;2618641;54;20034;-66
2022/08/08 00:21:34;;;;;;;;;;;;;;;16.92;45.96;99359.31;2617760;54;19946;-67
2022/08/08 00:24:16;;;;;;;;;;;;;;;16.96;45.77;99363.16;2618122;54;19963;-67
2022/08/08 00:26:48;;;;;;;;;;;;;;;17.05;45.54;99361.84;2617951;54;19947;-66
2022/08/08 00:29:19;;;;;;;;;;;;;;;17.07;45.76;99356.28;2618113;54;19939;-66
2022/08/08 00:32:12;;;;;;;;;;;;;;;16.96;46.14;99368.50;2617440;54;19950;-67
2022/08/08 00:35:17;;;;;;;;;;;;;;;16.83;45.93;99365.97;2618191;31;20413;-66
2022/08/08 00:37:59;;;;;;;;;;;;;;;16.77;46.19;99356.97;2617756;54;19951;-67
2022/08/08 00:40:42;;;;;;;;;;;;;;;16.74;46.57;99364.63;2618781;39;20376;-66
2022/08/08 00:43:58;;;;;;;;;;;;;;;16.70;46.49;99360.72;2618681;54;19969;-67
2022/08/08 00:46:44;;;;;;;;;;;;;;;16.56;47.26;99358.13;2620388;54;19955;-66
2022/08/08 00:49:49;;;;;;;;;;;;;;;16.67;47.21;99366.50;2618600;54;19939;-66
2022/08/08 00:52:41;;;;;;;;;;;;;;;16.77;46.62;99364.16;2617659;54;19962;-67
2022/08/08 00:55:25;;;;;;;;;;;;;;;16.66;46.18;99365.66;2617696;39;20377;-67
2022/08/08 00:58:43;;;;;;;;;;;;;;;16.55;46.93;99353.84;2618540;54;19939;-67
2022/08/08 01:01:31;;;;;;;;;;;;;;;16.63;46.83;99357.28;2617971;39;20005;-67
2022/08/08 01:04:38;;;;;;;;;;;;;;;16.55;47.29;99355.69;2616395;54;19975;-64
2022/08/08 01:07:40;;;;;;;;;;;;;;;16.49;47.19;99353.88;2619807;54;19939;-65
2022/08/08 01:10:53;;;;;;;;;;;;;;;16.35;47.36;99356.66;2620030;54;19938;-66
2022/08/08 01:13:56;;;;;;;;;;;;;;;16.26;47.42;99344.63;2620933;47;19953;-66
2022/08/08 01:16:46;;;;;;;;;;;;;;;16.17;47.71;99339.78;2620862;54;19988;-64
2022/08/08 01:19:35;;;;;;;;;;;;;;;16.05;48.06;99347.66;2620823;54;19947;-66
2022/08/08 01:22:43;;;;;;;;;;;;;;;15.98;48.27;99349.53;2621058;47;19950;-64
2022/08/08 01:25:32;;;;;;;;;;;;;;;15.90;48.50;99355.94;2620886;47;19946;-66
2022/08/08 01:28:23;;;;;;;;;;;;;;;15.94;48.75;99349.13;2621508;47;20026;-66
2022/08/08 01:31:13;;;;;;;;;;;;;;;15.96;48.41;99343.56;2622374;54;19939;-65
2022/08/08 01:34:27;;;;;;;;;;;;;;;15.92;48.36;99339.69;2621072;54;19953;-65
2022/08/08 01:37:18;;;;;;;;;;;;;;;15.91;48.73;99338.88;2619636;54;19946;-63
2022/08/08 01:40:03;;;;;;;;;;;;;;;15.91;48.82;99346.06;2620149;54;20698;-62
2022/08/08 01:42:38;;;;;;;;;;;;;;;15.98;48.77;99341.53;2621409;39;20394;-65
2022/08/08 01:45:25;;;;;;;;;;;;;;;16.04;48.32;99351.31;2622709;39;20370;-64
2022/08/08 01:48:01;;;;;;;;;;;;;;;15.89;47.96;99346.28;2620920;54;19957;-65
2022/08/08 01:51:03;;;;;;;;;;;;;;;15.74;48.11;99351.09;2621165;54;19946;-64
2022/08/08 01:53:57;;;;;;;;;;;;;;;15.64;48.23;99354.19;2621095;54;19954;-65
2022/08/08 01:56:54;;;;;;;;;;;;;;;15.47;48.59;99345.84;2620865;47;20457;-65
2022/08/08 01:59:40;;;;;;;;;;;;;;;15.46;49.00;99354.84;2621840;39;20353;-64
2022/08/08 02:02:59;;;;;;;;;;;;;;;15.44;49.12;99351.59;2621923;54;20462;-64
2022/08/08 02:05:37;;;;;;;;;;;;;;;15.40;48.72;99353.03;2621042;47;19955;-66
2022/08/08 02:08:42;;;;;;;;;;;;;;;15.36;49.13;99355.31;2622854;39;20357;-63
2022/08/08 02:11:21;;;;;;;;;;;;;;;15.20;49.43;99352.28;2622106;54;19942;-64
2022/08/08 02:13:56;;;;;;;;;;;;;;;15.02;50.49;99359.09;2622386;54;19946;-65
2022/08/08 02:16:45;;;;;;;;;;;;;;;15.13;50.00;99362.13;2621426;54;19951;-63
2022/08/08 02:19:19;;;;;;;;;;;;;;;15.31;49.95;99365.78;2622864;39;20366;-64
2022/08/08 02:25:05;;;;;;;;;;;;;;;15.45;49.59;99369.22;2623847;54;20699;-66
2022/08/08 02:27:41;;;;;;;;;;;;;;;15.54;48.84;99367.94;2624816;39;20307;-67
2022/08/08 02:30:22;;;;;;;;;;;;;;;15.59;48.84;99369.97;2624689;54;19951;-65
2022/08/08 02:33:07;;;;;;;;;;;;;;;15.57;49.12;99362.19;2624081;47;20479;-64
2022/08/08 02:36:01;;;;;;;;;;;;;;;15.48;49.51;99370.66;2622049;47;20467;-67
2022/08/08 02:38:52;;;;;;;;;;;;;;;15.46;49.92;99378.03;2622586;54;20011;-65
2022/08/08 02:41:39;;;;;;;;;;;;;;;15.30;49.60;99374.78;2622967;46;19953;-66
2022/08/08 02:44:55;;;;;;;;;;;;;;;15.23;49.68;99376.66;2622883;54;19946;-66
2022/08/08 02:47:54;;;;;;;;;;;;;;;15.20;49.81;99381.59;2622948;47;19946;-65
2022/08/08 02:50:41;;;;;;;;;;;;;;;15.09;50.09;99375.84;2622937;54;19939;-68
2022/08/08 02:53:36;;;;;;;;;;;;;;;14.98;50.64;99378.31;2622733;47;19958;-65
2022/08/08 02:56:23;;;;;;;;;;;;;;;14.95;50.39;99381.44;2623143;47;19950;-64
2022/08/08 02:59:20;;;;;;;;;;;;;;;14.87;50.36;99379.78;2622430;54;19945;-64
2022/08/08 03:02:24;;;;;;;;;;;;;;;14.79;50.77;99372.00;2623042;47;19939;-66
2022/08/08 03:05:12;;;;;;;;;;;;;;;14.72;51.32;99372.00;2622736;54;19946;-64
2022/08/08 03:08:09;;;;;;;;;;;;;;;14.70;51.20;99371.41;2622111;47;20025;-65
2022/08/08 03:10:51;;;;;;;;;;;;;;;14.80;51.51;99370.97;2622031;47;19951;-65
2022/08/08 03:13:41;;;;;;;;;;;;;;;14.86;50.86;99371.00;2621851;54;19942;-64
2022/08/08 03:16:34;;;;;;;;;;;;;;;14.94;50.83;99374.44;2621018;54;19970;-63
2022/08/08 03:19:22;;;;;;;;;;;;;;;14.73;50.89;99373.63;2621184;39;20318;-63
2022/08/08 03:21:52;;;;;;;;;;;;;;;14.68;51.24;99370.78;2621368;47;20029;-65
2022/08/08 03:24:32;;;;;;;;;;;;;;;14.67;50.94;99373.66;2621975;54;20044;-64
2022/08/08 03:27:07;;;;;;;;;;;;;;;14.63;50.98;99369.78;2621189;54;19939;-64
2022/08/08 03:29:40;;;;;;;;;;;;;;;14.54;51.13;99374.47;2621343;47;19942;-63
2022/08/08 03:35:11;;;;;;;;;;;;;;;14.53;50.51;99375.47;2622188;39;20392;-65
2022/08/08 03:37:44;;;;;;;;;;;;;;;14.41;50.96;99369.09;2621929;54;19939;-67
2022/08/08 03:40:36;;;;;;;;;;;;;;;14.35;51.04;99368.09;2622810;54;19939;-67
2022/08/08 03:43:09;;;;;;;;;;;;;;;14.33;51.29;99373.63;2622590;54;19950;-66
2022/08/08 03:45:53;;;;;;;;;;;;;;;14.27;51.82;99365.63;2622975;54;19965;-66
2022/08/08 03:48:38;;;;;;;;;;;;;;;14.28;51.57;99365.41;2622440;47;19958;-65
2022/08/08 03:51:37;;;;;;;;;;;;;;;14.30;51.52;99376.66;2622727;47;20477;-64
2022/08/08 03:54:20;;;;;;;;;;;;;;;14.30;51.39;99374.00;2622365;54;19970;-66
2022/08/08 03:57:15;;;;;;;;;;;;;;;14.39;51.58;99379.94;2621911;47;19945;-63
2022/08/08 04:03:02;;;;;;;;;;;;;;;14.45;51.39;99388.94;2604936;54;19971;-67
2022/08/08 04:05:40;;;;;;;;;;;;;;;14.52;50.98;99390.63;2617448;54;20042;-67
2022/08/08 04:08:20;;;;;;;;;;;;;;;14.43;50.91;99398.97;2617297;54;19939;-65
2022/08/08 04:11:06;;;;;;;;;;;;;;;14.29;51.50;99391.00;2617647;54;20456;-66
2022/08/08 04:13:49;;;;;;;;;;;;;;;14.19;51.58;99387.91;2618204;54;19939;-66
2022/08/08 04:16:41;;;;;;;;;;;;;;;14.18;51.99;99399.56;2617108;54;19977;-67
2022/08/08 04:19:17;;;;;;;;;;;;;;;14.17;51.97;99397.13;2617984;47;19954;-66
2022/08/08 04:21:55;;;;;;;;;;;;;;;14.20;52.11;99399.34;2618515;54;19972;-66
2022/08/08 04:24:28;;;;;;;;;;;;;;;14.21;52.35;99403.66;2618345;47;19973;-67
2022/08/08 04:27:03;;;;;;;;;;;;;;;14.11;52.27;99396.06;2618120;46;19947;-67
2022/08/08 04:29:55;;;;;;;;;;;;;;;14.07;52.82;99402.78;2618315;39;20327;-66
2022/08/08 04:32:45;;;;;;;;;;;;;;;14.13;52.36;99397.50;2618568;54;20026;-66
2022/08/08 04:35:18;;;;;;;;;;;;;;;14.15;52.72;99405.28;2618481;54;19946;-66
2022/08/08 04:37:51;;;;;;;;;;;;;;;14.19;52.46;99403.03;2618195;54;20031;-67
2022/08/08 04:40:26;;;;;;;;;;;;;;;14.16;52.11;99412.22;2618086;51;19947;-66
2022/08/08 04:42:57;;;;;;;;;;;;;;;14.15;52.23;99410.59;2618470;47;19969;-67
2022/08/08 04:45:53;;;;;;;;;;;;;;;14.25;52.25;99424.34;2618543;54;19951;-66
2022/08/08 04:48:22;;;;;;;;;;;;;;;14.46;51.82;99414.53;2618228;54;19950;-66
2022/08/08 04:50:52;;;;;;;;;;;;;;;14.61;51.09;99421.34;2618007;54;19939;-66
2022/08/08 04:53:27;;;;;;;;;;;;;;;14.57;51.39;99422.78;2618342;47;20446;-66
2022/08/08 04:56:17;;;;;;;;;;;;;;;14.63;50.99;99429.13;2618011;54;19946;-66
2022/08/08 04:58:47;;;;;;;;;;;;;;;14.71;51.16;99423.59;2617988;54;19951;-66
2022/08/08 05:01:22;;;;;;;;;;;;;;;14.84;51.10;99430.75;2618052;47;19947;-66
2022/08/08 05:03:52;;;;;;;;;;;;;;;14.83;51.00;99432.63;2617890;54;19946;-66
2022/08/08 05:06:46;;;;;;;;;;;;;;;14.80;50.67;99425.03;2618270;39;20342;-67
2022/08/08 05:09:21;;;;;;;;;;;;;;;14.79;50.87;99428.72;2619348;39;20322;-67
2022/08/08 05:11:52;;;;;;;;;;;;;;;14.86;50.66;99434.88;2618082;47;19961;-67
2022/08/08 05:14:26;;;;;;;;;;;;;;;14.85;51.00;99438.53;2618509;39;20331;-67
2022/08/08 05:17:03;;;;;;;;;;;;;;;14.94;50.51;99436.50;2618222;54;19973;-67
2022/08/08 05:19:39;;;;;;;;;;;;;;;14.94;50.32;99443.66;2618135;54;20053;-67
2022/08/08 05:22:35;;;;;;;;;;;;;;;14.93;50.05;99450.00;2618040;50;19970;-67
2022/08/08 05:25:05;;;;;;;;;;;;;;;14.98;50.41;99447.53;2618785;39;20334;-66
2022/08/08 05:27:35;;;;;;;;;;;;;;;15.05;50.03;99448.38;2618194;54;19939;-66
2022/08/08 05:30:14;;;;;;;;;;;;;;;15.11;49.94;99448.38;2618157;54;19953;-66
2022/08/08 05:32:49;;;;;;;;;;;;;;;15.22;49.76;99449.56;2618387;47;19943;-66
2022/08/08 05:35:23;;;;;;;;;;;;;;;15.39;49.60;99451.81;2618483;39;20329;-66
2022/08/08 05:38:00;;;;;;;;;;;;;;;15.50;49.66;99453.84;2617951;47;19946;-67
2022/08/08 05:40:47;;;;;;;;;;;;;;;15.58;49.48;99464.28;2618629;54;19947;-66
2022/08/08 05:43:21;;;;;;;;;;;;;;;15.70;48.98;99454.63;2618233;54;20458;-67
2022/08/08 05:46:10;;;;;;;;;;;;;;;15.76;49.13;99455.66;2619811;39;20370;-66
2022/08/08 05:48:44;;;;;;;;;;;;;;;15.90;48.47;99456.44;2619791;54;19938;-65
2022/08/08 05:51:22;;;;;;;;;;;;;;;15.92;48.76;99463.19;2620508;31;20425;-66
2022/08/08 05:53:56;;;;;;;;;;;;;;;16.03;48.24;99457.19;2619365;47;20026;-66
2022/08/08 05:56:46;;;;;;;;;;;;;;;16.00;48.32;99459.44;2619307;54;19938;-66
2022/08/08 05:59:23;;;;;;;;;;;;;;;16.10;48.24;99452.63;2619476;47;19951;-66
2022/08/08 06:05:10;;;;;;;;;;;;;;;16.43;47.45;99458.84;2619361;54;19942;-66
2022/08/08 06:08:00;;;;;;;;;;;;;;;16.58;47.45;99462.03;2618809;47;19939;-66
2022/08/08 06:10:40;;;;;;;;;;;;;;;16.68;47.27;99459.69;2619191;47;20469;-66
2022/08/08 06:13:12;;;;;;;;;;;;;;;16.84;46.07;99466.38;2619516;47;20053;-66
2022/08/08 06:15:53;;;;;;;;;;;;;;;16.84;46.27;99464.53;2619809;39;20326;-66
2022/08/08 06:18:35;;;;;;;;;;;;;;;16.96;46.04;99471.84;2619222;54;19970;-66
2022/08/08 06:21:09;;;;;;;;;;;;;;;17.07;45.75;99471.97;2619227;47;20082;-67
2022/08/08 06:24:00;;;;;;;;;;;;;;;17.09;45.40;99469.06;2619083;54;19969;-66
2022/08/08 06:26:46;;;;;;;;;;;;;;;17.05;45.54;99478.53;2618805;54;19962;-66
2022/08/08 06:29:27;;;;;;;;;;;;;;;17.16;45.90;99479.69;2618995;54;20045;-65
2022/08/08 06:32:17;;;;;;;;;;;;;;;17.36;45.53;99472.31;2618836;54;19950;-66
2022/08/08 06:34:53;;;;;;;;;;;;;;;17.50;45.34;99473.00;2619038;54;19943;-66
2022/08/08 06:37:51;;;;;;;;;;;;;;;17.61;44.37;99477.63;2618921;54;20054;-67
2022/08/08 06:40:27;;;;;;;;;;;;;;;17.69;44.64;99471.16;2619426;47;19951;-66
2022/08/08 06:42:58;;;;;;;;;;;;;;;17.83;44.44;99480.69;2619257;54;20489;-66
2022/08/08 06:45:35;;;;;;;;;;;;;;;17.91;44.42;99479.56;2619658;54;19938;-66
2022/08/08 06:48:07;;;;;;;;;;;;;;;18.06;44.27;99478.16;2620385;31;20395;-66
2022/08/08 06:50:40;;;;;;;;;;;;;;;18.27;43.88;99479.53;2619345;54;19946;-65
2022/08/08 06:53:17;;;;;;;;;;;;;;;18.42;44.06;99470.28;2619011;54;19942;-66
2022/08/08 06:55:56;;;;;;;;;;;;;;;18.54;42.73;99480.00;2618937;47;19951;-66
2022/08/08 06:58:34;;;;;;;;;;;;;;;18.55;42.98;99478.94;2618583;54;20034;-66
2022/08/08 07:01:09;;;;;;;;;;;;;;;18.65;42.55;99481.06;2618973;47;19939;-65
2022/08/08 07:04:05;;;;;;;;;;;;;;;18.74;41.89;99486.97;2619058;39;20354;-65
2022/08/08 07:06:56;;;;;;;;;;;;;;;18.81;42.14;99485.78;2618397;47;19965;-66
2022/08/08 07:09:37;;;;;;;;;;;;;;;18.99;41.77;99484.91;2619102;39;20319;-66
2022/08/08 07:12:35;;;;;;;;;;;;;;;19.05;41.33;99486.66;2618818;54;19970;-66
2022/08/08 07:15:06;;;;;;;;;;;;;;;19.17;41.50;99492.03;2618542;54;20091;-67
2022/08/08 07:17:58;;;;;;;;;;;;;;;19.28;41.22;99488.56;2618563;47;19949;-66
2022/08/08 07:20:50;;;;;;;;;;;;;;;19.54;40.63;99494.47;2619188;54;19974;-65
2022/08/08 07:23:24;;;;;;;;;;;;;;;19.70;40.15;99493.00;2618694;50;19979;-66
2022/08/08 07:26:04;;;;;;;;;;;;;;;19.85;39.97;99487.16;2618595;47;19946;-66
2022/08/08 07:28:34;;;;;;;;;;;;;;;19.96;38.96;99487.13;2618765;54;20443;-66
2022/08/08 07:31:07;;;;;;;;;;;;;;;20.08;39.50;99484.38;2619096;47;19960;-67
2022/08/08 07:33:40;;;;;;;;;;;;;;;20.23;38.56;99487.38;2619249;47;19951;-66
2022/08/08 07:36:29;;;;;;;;;;;;;;;20.33;38.84;99496.69;2618920;54;19979;-67
2022/08/08 07:39:00;;;;;;;;;;;;;;;20.50;37.89;99492.22;2619454;54;20323;-67
2022/08/08 07:41:37;;;;;;;;;;;;;;;20.56;37.81;99493.13;2619274;47;19953;-66
2022/08/08 07:44:27;;;;;;;;;;;;;;;20.63;37.38;99486.53;2619566;54;19939;-67
2022/08/08 07:47:11;;;;;;;;;;;;;;;20.85;37.23;99486.66;2618694;47;20026;-66
2022/08/08 07:49:43;;;;;;;;;;;;;;;20.93;36.79;99488.13;2619132;54;19954;-67
2022/08/08 07:52:19;;;;;;;;;;;;;;;21.16;36.14;99492.53;2619485;47;19938;-66
2022/08/08 07:54:59;;;;;;;;;;;;;;;21.43;34.93;99481.94;2618937;47;19945;-66
2022/08/08 07:57:38;;;;;;;;;;;;;;;21.76;33.42;99484.56;2618763;54;19939;-66
2022/08/08 08:00:18;;;;;;;;;;;;;;;21.92;33.02;99484.75;2619763;39;20345;-67
2022/08/08 08:03:12;;;;;;;;;;;;;;;22.04;32.56;99490.81;2619078;47;19973;-67
2022/08/08 08:05:53;;;;;;;;;;;;;;;22.12;32.39;99486.88;2619532;39;20060;-65
2022/08/08 08:08:29;;;;;;;;;;;;;;;22.24;32.22;99487.59;2618776;54;19953;-66
2022/08/08 08:10:59;;;;;;;;;;;;;;;22.27;32.58;99484.41;2619393;54;19946;-66
2022/08/08 08:13:36;;;;;;;;;;;;;;;22.43;32.04;99488.88;2619375;54;19967;-66
2022/08/08 08:16:27;;;;;;;;;;;;;;;22.50;31.89;99492.19;2619127;54;19977;-66
2022/08/08 08:19:03;;;;;;;;;;;;;;;22.65;32.16;99486.13;2619388;39;20307;-67
2022/08/08 08:21:39;;;;;;;;;;;;;;;22.75;32.27;99488.13;2619842;39;20334;-67
2022/08/08 08:24:39;;;;;;;;;;;;;;;22.90;31.52;99484.72;2619007;47;20010;-67
2022/08/08 08:27:12;;;;;;;;;;;;;;;22.92;31.99;99488.84;2619652;39;20354;-67
2022/08/08 08:29:47;;;;;;;;;;;;;;;23.16;31.17;99486.59;2619092;54;20761;-67
2022/08/08 08:32:21;;;;;;;;;;;;;;;23.29;30.85;99489.94;2619035;54;20465;-66
2022/08/08 08:35:07;;;;;;;;;;;;;;;23.36;30.80;99491.34;2618990;47;19938;-67
2022/08/08 08:37:38;;;;;;;;;;;;;;;23.43;30.58;99481.13;2619246;54;19946;-66
2022/08/08 08:40:29;;;;;;;;;;;;;;;23.54;29.97;99494.69;2619289;46;19947;-66
2022/08/08 08:42:59;;;;;;;;;;;;;;;23.59;30.94;99495.50;2619287;54;19946;-65
2022/08/08 08:45:32;;;;;;;;;;;;;;;23.79;30.23;99486.75;2619367;54;19946;-65
2022/08/08 08:48:04;;;;;;;;;;;;;;;23.92;29.50;99496.25;2618908;47;19946;-66
2022/08/08 08:50:39;;;;;;;;;;;;;;;24.01;29.92;99497.41;2619297;54;19950;-66
2022/08/08 08:53:12;;;;;;;;;;;;;;;24.00;29.16;99498.44;2619510;47;19954;-66
2022/08/08 08:56:09;;;;;;;;;;;;;;;24.07;28.90;99493.63;2619341;54;19947;-65
2022/08/08 08:58:43;;;;;;;;;;;;;;;24.13;28.72;99489.88;2619214;54;19957;-66
2022/08/08 09:01:24;;;;;;;;;;;;;;;24.28;28.56;99491.78;2619618;39;20370;-67
2022/08/08 09:03:57;;;;;;;;;;;;;;;24.35;28.34;99492.38;2618968;54;19943;-66
2022/08/08 09:06:38;;;;;;;;;;;;;;;24.28;29.00;99489.09;2618831;51;20453;-66
2022/08/08 09:09:24;;;;;;;;;;;;;;;24.36;28.78;99493.97;2619080;46;19951;-66
2022/08/08 09:12:13;;;;;;;;;;;;;;;24.32;28.83;99486.69;2618877;54;19939;-66
2022/08/08 09:14:46;;;;;;;;;;;;;;;24.46;28.37;99485.94;2619318;39;20385;-67
2022/08/08 09:17:23;;;;;;;;;;;;;;;24.48;28.52;99493.78;2618593;47;19947;-66
2022/08/08 09:20:13;;;;;;;;;;;;;;;24.53;28.38;99490.28;2619075;54;20482;-67
2022/08/08 09:23:04;;;;;;;;;;;;;;;24.64;27.99;99494.63;2618705;54;20040;-67
2022/08/08 09:25:43;;;;;;;;;;;;;;;24.65;28.69;99490.81;2618635;47;19938;-66
2022/08/08 09:28:39;;;;;;;;;;;;;;;24.68;28.33;99495.72;2618744;54;19991;-69
2022/08/08 09:31:30;;;;;;;;;;;;;;;24.77;28.28;99495.97;2618845;47;20473;-67
2022/08/08 09:34:25;;;;;;;;;;;;;;;24.89;28.03;99488.41;2618215;39;20407;-67
2022/08/08 09:37:03;;;;;;;;;;;;;;;24.90;28.29;99482.75;2618847;39;20330;-66
2022/08/08 09:39:56;;;;;;;;;;;;;;;25.08;27.60;99480.59;2619098;54;19946;-66
2022/08/08 09:42:30;;;;;;;;;;;;;;;25.24;27.34;99484.94;2618905;39;20361;-66
2022/08/08 09:45:04;;;;;;;;;;;;;;;25.33;27.72;99479.78;2618881;54;20450;-66
2022/08/08 09:47:44;;;;;;;;;;;;;;;25.49;27.13;99480.56;2619036;54;20427;-67
2022/08/08 09:50:36;;;;;;;;;;;;;;;25.35;27.90;99485.72;2619406;54;19970;-66
2022/08/08 09:53:20;;;;;;;;;;;;;;;25.34;27.55;99481.41;2619436;54;19946;-66
2022/08/08 09:56:12;;;;;;;;;;;;;;;25.29;27.39;99478.69;2619767;31;20468;-66
2022/08/08 09:58:55;;;;;;;;;;;;;;;25.30;27.63;99478.41;2619199;54;19939;-66
2022/08/08 10:01:28;;;;;;;;;;;;;;;25.48;27.85;99474.34;2621693;54;19953;-67
2022/08/08 10:04:21;;;;;;;;;;;;;;;25.49;27.37;99473.25;2619267;54;19947;-66
2022/08/08 10:07:16;;;;;;;;;;;;;;;25.72;27.19;99466.44;2619254;54;19969;-67
2022/08/08 10:09:51;;;;;;;;;;;;;;;25.78;27.25;99472.66;2619064;54;19947;-65
2022/08/08 10:12:33;;;;;;;;;;;;;;;25.97;26.93;99470.97;2619425;39;20363;-67
2022/08/08 10:15:08;;;;;;;;;;;;;;;26.05;26.97;99470.38;2618021;54;19943;-67
2022/08/08 10:17:47;;;;;;;;;;;;;;;26.03;26.59;99463.63;2617351;54;19946;-66
2022/08/08 10:20:41;;;;;;;;;;;;;;;25.98;26.86;99458.22;2618232;39;20365;-67
2022/08/08 10:23:38;;;;;;;;;;;;;;;26.08;26.63;99460.88;2617609;54;19946;-67
2022/08/08 16:17:44;;;;;;;;;;;;;;;30.29;18.81;99277.53;2620647;46;20191;-67
2022/08/08 16:20:34;;;;;;;;;;;;;;;30.20;18.73;99284.03;2620574;54;20418;-67
2022/08/08 16:23:03;;;;;;;;;;;;;;;30.22;18.94;99277.16;2620055;39;20315;-67
2022/08/08 16:25:35;;;;;;;;;;;;;;;30.26;18.83;99282.81;2619787;54;19942;-67
2022/08/08 16:28:21;;;;;;;;;;;;;;;30.39;18.74;99278.38;2619692;54;19950;-67
2022/08/08 16:31:05;;;;;;;;;;;;;;;30.45;18.55;99282.56;2619785;54;19953;-66
2022/08/08 16:33:41;;;;;;;;;;;;;;;30.42;18.77;99284.03;2619644;39;20353;-68
2022/08/08 16:36:27;;;;;;;;;;;;;;;30.45;18.20;99280.66;2619199;54;19947;-67
2022/08/08 16:39:02;;;;;;;;;;;;;;;30.45;18.31;99279.84;2618887;54;19939;-67
2022/08/08 16:41:51;;;;;;;;;;;;;;;30.47;18.16;99280.34;2618746;54;19946;-67
2022/08/08 16:44:29;;;;;;;;;;;;;;;30.47;18.66;99275.69;2618527;54;19947;-66
2022/08/08 16:47:19;;;;;;;;;;;;;;;30.55;18.36;99280.41;2618467;54;19982;-67
2022/08/08 16:49:58;;;;;;;;;;;;;;;30.46;18.36;99284.22;2618487;54;19939;-67
2022/08/08 16:52:30;;;;;;;;;;;;;;;30.39;18.26;99276.47;2618823;54;19998;-67
2022/08/08 16:55:19;;;;;;;;;;;;;;;30.37;18.55;99286.88;2618999;54;19955;-67
2022/08/08 16:58:09;;;;;;;;;;;;;;;30.42;18.33;99283.22;2618777;54;19939;-67
2022/08/08 17:00:44;;;;;;;;;;;;;;;30.47;18.18;99281.16;2618557;54;19947;-67
2022/08/08 17:03:20;;;;;;;;;;;;;;;30.52;18.17;99280.22;2619313;39;20382;-67
2022/08/08 17:06:12;;;;;;;;;;;;;;;30.47;18.22;99288.53;2619052;54;19993;-67
2022/08/08 17:09:01;;;;;;;;;;;;;;;30.58;17.95;99277.06;2619550;54;19939;-67
2022/08/08 17:11:32;;;;;;;;;;;;;;;30.83;17.68;99282.97;2619674;54;19954;-67
2022/08/08 17:14:17;;;;;;;;;;;;;;;30.83;17.37;99286.50;2619284;54;19938;-66
2022/08/08 17:17:02;;;;;;;;;;;;;;;30.93;17.58;99282.69;2619404;54;20422;-67
2022/08/08 17:19:32;;;;;;;;;;;;;;;31.11;17.81;99285.44;2618829;47;19939;-69
2022/08/08 17:22:12;;;;;;;;;;;;;;;31.18;17.57;99292.06;2620092;54;19946;-67
2022/08/08 17:24:42;;;;;;;;;;;;;;;31.19;17.21;99288.22;2619309;54;19973;-67
2022/08/08 17:27:22;;;;;;;;;;;;;;;31.11;17.09;99291.75;2618222;47;19938;-67
2022/08/08 17:29:57;;;;;;;;;;;;;;;31.12;17.40;99281.63;2618923;54;20511;-66
2022/08/08 17:32:27;;;;;;;;;;;;;;;31.12;17.66;99281.63;2618954;54;19963;-66
2022/08/08 17:35:02;;;;;;;;;;;;;;;31.10;17.36;99287.38;2618926;54;19939;-66
2022/08/08 17:37:54;;;;;;;;;;;;;;;31.14;17.56;99291.09;2618545;54;19951;-69
2022/08/08 17:40:23;;;;;;;;;;;;;;;31.24;17.47;99292.75;2619533;54;19990;-66
2022/08/08 17:42:54;;;;;;;;;;;;;;;31.18;17.28;99292.06;2619002;54;20045;-66
2022/08/08 17:45:23;;;;;;;;;;;;;;;31.18;17.13;99294.78;2618848;54;19973;-65
2022/08/08 17:47:54;;;;;;;;;;;;;;;31.33;17.06;99291.66;2618823;54;19970;-66
2022/08/08 17:50:25;;;;;;;;;;;;;;;31.33;17.45;99294.38;2618927;39;20346;-66
2022/08/08 17:52:56;;;;;;;;;;;;;;;31.38;17.62;99295.38;2619295;54;19939;-66
2022/08/08 17:55:26;;;;;;;;;;;;;;;31.35;17.56;99296.78;2618692;54;19949;-67
2022/08/08 17:58:16;;;;;;;;;;;;;;;31.12;18.08;99298.81;2618721;54;20010;-67
2022/08/08 18:00:47;;;;;;;;;;;;;;;30.70;17.93;99297.47;2618584;54;19954;-67
2022/08/08 18:03:25;;;;;;;;;;;;;;;30.20;18.19;99303.91;2618959;54;19938;-66
2022/08/08 18:05:55;;;;;;;;;;;;;;;29.72;18.68;99312.66;2619236;54;20521;-66
2022/08/08 18:08:29;;;;;;;;;;;;;;;29.25;19.26;99313.91;2619197;54;20465;-67
2022/08/08 18:11:11;;;;;;;;;;;;;;;28.87;19.33;99320.34;2618784;47;19954;-66
2022/08/08 18:13:44;;;;;;;;;;;;;;;28.57;20.24;99316.22;2618458;54;20557;-67
2022/08/08 18:16:16;;;;;;;;;;;;;;;28.42;19.94;99315.72;2618845;54;19943;-67
2022/08/08 18:18:51;;;;;;;;;;;;;;;28.26;20.37;99328.72;2619006;54;19939;-66
2022/08/08 18:21:26;;;;;;;;;;;;;;;28.12;20.69;99329.44;2618349;54;19939;-67
2022/08/08 18:24:19;;;;;;;;;;;;;;;27.92;20.65;99326.22;2618637;54;19942;-67
2022/08/08 18:26:50;;;;;;;;;;;;;;;27.76;20.88;99328.34;2619109;54;19990;-66
2022/08/08 18:29:24;;;;;;;;;;;;;;;27.65;20.97;99333.91;2619173;54;19943;-68
2022/08/08 18:32:02;;;;;;;;;;;;;;;27.53;21.65;99330.00;2618815;54;19966;-68
2022/08/08 18:34:33;;;;;;;;;;;;;;;27.48;21.78;99336.31;2618974;54;19950;-68
2022/08/08 18:37:03;;;;;;;;;;;;;;;27.38;21.58;99333.72;2622367;47;19951;-68
2022/08/08 18:39:39;;;;;;;;;;;;;;;27.28;21.65;99331.13;2623287;54;19943;-67
2022/08/08 18:42:11;;;;;;;;;;;;;;;27.16;21.57;99329.63;2618884;54;19938;-67
2022/08/08 18:44:45;;;;;;;;;;;;;;;27.08;22.03;99338.38;2618843;54;19938;-68
2022/08/08 18:47:26;;;;;;;;;;;;;;;26.95;22.17;99338.25;2618427;54;20461;-67
2022/08/08 18:49:57;;;;;;;;;;;;;;;26.87;22.16;99347.84;2619725;54;20033;-66
2022/08/08 18:52:32;;;;;;;;;;;;;;;26.82;22.58;99358.72;2618977;54;20513;-67
2022/08/08 18:55:07;;;;;;;;;;;;;;;26.70;22.43;99356.41;2619556;54;19947;-67
2022/08/08 18:57:40;;;;;;;;;;;;;;;26.66;22.27;99363.50;2619359;54;19954;-65
2022/08/08 19:00:15;;;;;;;;;;;;;;;26.56;22.88;99361.66;2619730;54;20457;-67
2022/08/08 19:02:49;;;;;;;;;;;;;;;26.51;22.57;99372.56;2619718;54;19946;-68
2022/08/08 19:05:29;;;;;;;;;;;;;;;26.39;22.99;99366.66;2620931;54;20443;-67
2022/08/08 19:08:13;;;;;;;;;;;;;;;26.32;23.13;99375.09;2623021;54;19946;-67
2022/08/08 19:11:01;;;;;;;;;;;;;;;26.14;23.19;99383.91;2620175;54;19958;-66
2022/08/08 19:13:31;;;;;;;;;;;;;;;26.04;23.43;99386.66;2619693;54;19939;-67
2022/08/08 19:16:21;;;;;;;;;;;;;;;25.99;23.25;99384.81;2619056;39;20335;-67
2022/08/08 19:18:56;;;;;;;;;;;;;;;25.91;23.43;99391.63;2619589;54;19946;-67
2022/08/08 19:21:31;;;;;;;;;;;;;;;25.89;24.02;99393.00;2619879;39;20315;-67
2022/08/08 19:24:18;;;;;;;;;;;;;;;25.74;23.63;99401.16;2619591;54;20477;-66
2022/08/08 19:27:10;;;;;;;;;;;;;;;25.74;23.93;99403.88;2619776;39;20350;-67
2022/08/08 19:29:43;;;;;;;;;;;;;;;25.70;23.75;99404.41;2619785;54;19947;-65
2022/08/08 19:32:14;;;;;;;;;;;;;;;25.65;24.19;99409.06;2620213;54;19982;-66
2022/08/08 19:34:50;;;;;;;;;;;;;;;25.63;24.27;99417.44;2620239;39;20358;-66
2022/08/08 19:37:20;;;;;;;;;;;;;;;25.59;24.28;99404.72;2619379;54;20021;-66
2022/08/08 19:40:10;;;;;;;;;;;;;;;25.50;24.79;99415.31;2619883;54;19950;-67
2022/08/08 19:42:47;;;;;;;;;;;;;;;25.43;24.61;99421.03;2619913;54;19983;-67
2022/08/08 19:45:19;;;;;;;;;;;;;;;25.39;24.76;99428.09;2618897;54;20082;-65
2022/08/08 19:48:08;;;;;;;;;;;;;;;25.36;24.88;99425.13;2620267;54;19993;-66
2022/08/08 19:50:58;;;;;;;;;;;;;;;25.22;25.53;99424.84;2619667;54;19943;-65
2022/08/08 19:53:31;;;;;;;;;;;;;;;25.18;25.90;99431.91;2620147;54;19946;-67
2022/08/08 19:56:22;;;;;;;;;;;;;;;25.08;26.08;99437.31;2620766;54;19950;-68
2022/08/08 19:59:11;;;;;;;;;;;;;;;24.92;26.80;99431.09;2620113;54;19945;-66
2022/08/08 20:01:41;;;;;;;;;;;;;;;24.79;26.46;99435.16;2619675;54;19947;-67
2022/08/08 20:04:30;;;;;;;;;;;;;;;24.66;27.11;99436.50;2620318;31;20419;-66
2022/08/08 20:07:01;;;;;;;;;;;;;;;24.54;27.49;99445.97;2619307;54;19953;-65
2022/08/08 20:09:50;;;;;;;;;;;;;;;24.46;27.57;99445.41;2619609;39;20330;-66